createdAt,value
2018-04-22T00:01:05.368Z,13.90
2018-04-22T00:03:35.093Z,13.90
2018-04-22T00:06:03.378Z,13.90
2018-04-22T00:08:33.218Z,13.90
2018-04-22T00:11:02.434Z,13.90
2018-04-22T00:13:30.948Z,13.80
2018-04-22T00:16:01.598Z,13.90
2018-04-22T00:18:29.816Z,13.90
2018-04-22T00:20:57.927Z,13.90
2018-04-22T00:23:26.117Z,13.90
2018-04-22T00:25:54.673Z,13.90
2018-04-22T00:28:22.865Z,13.80
2018-04-22T00:30:51.036Z,13.80
2018-04-22T00:33:19.791Z,13.70
2018-04-22T00:35:49.013Z,13.70
2018-04-22T00:38:17.226Z,13.70
2018-04-22T00:40:45.750Z,13.70
2018-04-22T00:43:15.464Z,13.70
2018-04-22T00:45:44.506Z,13.70
2018-04-22T00:48:13.305Z,13.70
2018-04-22T00:50:41.794Z,13.70
2018-04-22T00:53:10.253Z,13.70
2018-04-22T00:55:39.316Z,13.70
2018-04-22T00:58:08.721Z,13.40
2018-04-22T01:00:37.792Z,13.40
2018-04-22T01:03:06.809Z,13.50
2018-04-22T01:05:36.187Z,13.50
2018-04-22T01:08:05.464Z,13.30
2018-04-22T01:10:33.838Z,13.30
2018-04-22T01:13:02.110Z,13.20
2018-04-22T01:15:30.596Z,13.30
2018-04-22T01:17:58.988Z,13.20
2018-04-22T01:20:27.469Z,13.20
2018-04-22T01:22:56.569Z,12.90
2018-04-22T01:25:24.869Z,12.90
2018-04-22T01:27:54.871Z,12.90
2018-04-22T01:30:23.151Z,12.90
2018-04-22T01:32:51.432Z,12.80
2018-04-22T01:35:19.997Z,12.80
2018-04-22T01:37:50.232Z,12.70
2018-04-22T01:40:19.534Z,12.70
2018-04-22T01:42:47.961Z,12.60
2018-04-22T01:45:16.176Z,12.80
2018-04-22T01:47:45.401Z,12.90
2018-04-22T01:50:13.955Z,12.90
2018-04-22T01:52:42.239Z,12.90
2018-04-22T01:55:11.368Z,13.00
2018-04-22T01:57:40.021Z,13.00
2018-04-22T02:00:08.498Z,12.90
2018-04-22T02:02:37.289Z,12.70
2018-04-22T02:05:06.437Z,12.60
2018-04-22T02:07:34.792Z,12.50
2018-04-22T02:10:03.000Z,12.50
2018-04-22T02:12:31.372Z,12.40
2018-04-22T02:14:59.863Z,12.40
2018-04-22T02:17:28.395Z,12.30
2018-04-22T02:19:56.581Z,12.30
2018-04-22T02:22:24.844Z,12.40
2018-04-22T02:24:53.122Z,12.50
2018-04-22T02:27:21.430Z,12.50
2018-04-22T02:29:50.235Z,12.50
2018-04-22T02:32:18.746Z,12.60
2018-04-22T02:34:47.126Z,12.60
2018-04-22T02:37:15.575Z,12.60
2018-04-22T02:39:44.727Z,12.60
2018-04-22T02:42:13.097Z,12.60
2018-04-22T02:44:41.546Z,12.60
2018-04-22T02:47:10.159Z,12.40
2018-04-22T02:49:38.546Z,12.40
2018-04-22T02:52:06.708Z,12.30
2018-04-22T02:54:36.140Z,12.30
2018-04-22T02:57:04.766Z,12.30
2018-04-22T02:59:33.787Z,12.20
2018-04-22T03:02:01.917Z,12.20
2018-04-22T03:04:30.369Z,12.20
2018-04-22T03:06:58.861Z,12.10
2018-04-22T03:09:27.752Z,12.10
2018-04-22T03:11:56.300Z,12.20
2018-04-22T03:14:24.818Z,12.10
2018-04-22T03:16:53.972Z,11.90
2018-04-22T03:19:22.169Z,11.80
2018-04-22T03:21:50.579Z,11.70
2018-04-22T03:24:19.033Z,11.70
2018-04-22T03:26:47.212Z,11.70
2018-04-22T03:29:15.693Z,11.60
2018-04-22T03:31:43.998Z,11.70
2018-04-22T03:34:13.177Z,11.60
2018-04-22T03:36:41.411Z,11.60
2018-04-22T03:39:09.722Z,11.60
2018-04-22T03:41:38.164Z,11.60
2018-04-22T03:44:06.473Z,11.40
2018-04-22T03:46:36.564Z,11.50
2018-04-22T03:49:05.153Z,11.50
2018-04-22T03:51:33.477Z,11.60
2018-04-22T03:54:02.548Z,11.70
2018-04-22T03:56:30.760Z,11.60
2018-04-22T03:59:00.062Z,11.70
2018-04-22T04:01:30.144Z,11.80
2018-04-22T04:03:58.496Z,11.80
2018-04-22T04:06:26.716Z,11.90
2018-04-22T04:08:55.026Z,11.90
2018-04-22T04:11:23.334Z,11.90
2018-04-22T04:13:51.737Z,11.80
2018-04-22T04:16:20.090Z,11.80
2018-04-22T04:21:03.818Z,11.80
2018-04-22T04:23:41.074Z,11.70
2018-04-22T04:26:22.079Z,11.70
2018-04-22T04:28:50.526Z,11.70
2018-04-22T04:31:18.762Z,11.60
2018-04-22T04:33:47.683Z,11.60
2018-04-22T04:36:17.002Z,11.50
2018-04-22T04:38:45.921Z,11.50
2018-04-22T04:41:17.619Z,11.50
2018-04-22T04:43:45.835Z,11.40
2018-04-22T04:46:16.335Z,11.00
2018-04-22T04:48:45.225Z,11.00
2018-04-22T04:51:14.274Z,11.00
2018-04-22T04:53:42.588Z,11.00
2018-04-22T04:56:11.488Z,11.30
2018-04-22T04:58:40.616Z,11.30
2018-04-22T05:01:08.877Z,11.30
2018-04-22T05:03:37.274Z,11.30
2018-04-22T05:06:05.496Z,11.30
2018-04-22T05:08:34.030Z,11.30
2018-04-22T05:11:02.636Z,11.40
2018-04-22T05:13:30.825Z,11.50
2018-04-22T05:16:00.538Z,11.60
2018-04-22T05:18:29.002Z,11.60
2018-04-22T05:20:58.509Z,11.70
2018-04-22T05:23:27.045Z,11.70
2018-04-22T05:25:55.571Z,11.60
2018-04-22T05:28:23.816Z,11.60
2018-04-22T05:30:51.989Z,11.60
2018-04-22T05:33:20.366Z,11.80
2018-04-22T05:35:48.601Z,11.80
2018-04-22T05:38:17.106Z,11.90
2018-04-22T05:40:45.268Z,11.90
2018-04-22T05:43:13.882Z,11.90
2018-04-22T05:45:42.122Z,12.00
2018-04-22T05:48:10.544Z,12.00
2018-04-22T05:50:39.748Z,11.90
2018-04-22T05:53:07.951Z,11.90
2018-04-22T05:55:36.101Z,11.80
2018-04-22T05:58:04.802Z,11.90
2018-04-22T06:00:33.086Z,12.00
2018-04-22T06:03:01.996Z,12.00
2018-04-22T06:05:32.697Z,12.10
2018-04-22T06:08:01.041Z,12.10
2018-04-22T06:10:29.337Z,12.20
2018-04-22T06:12:57.476Z,12.40
2018-04-22T06:15:25.920Z,12.40
2018-04-22T06:17:54.405Z,12.50
2018-04-22T06:20:23.513Z,12.60
2018-04-22T06:22:51.754Z,12.60
2018-04-22T06:25:20.185Z,12.60
2018-04-22T06:27:48.931Z,12.80
2018-04-22T06:30:17.260Z,12.90
2018-04-22T06:32:46.297Z,13.10
2018-04-22T06:35:15.163Z,13.40
2018-04-22T06:37:43.444Z,13.30
2018-04-22T06:40:11.697Z,13.30
2018-04-22T06:42:40.784Z,13.40
2018-04-22T06:45:09.297Z,13.50
2018-04-22T06:47:37.601Z,13.60
2018-04-22T06:50:06.045Z,13.60
2018-04-22T06:52:34.248Z,13.90
2018-04-22T06:55:04.263Z,14.50
2018-04-22T06:57:32.454Z,14.50
2018-04-22T07:00:02.171Z,14.70
2018-04-22T07:02:30.848Z,14.70
2018-04-22T07:04:59.149Z,15.10
2018-04-22T07:07:28.722Z,16.40
2018-04-22T07:09:57.066Z,17.00
2018-04-22T07:12:25.614Z,17.60
2018-04-22T07:14:54.150Z,18.60
2018-04-22T07:17:22.453Z,19.90
2018-04-22T07:19:50.995Z,19.80
2018-04-22T07:22:19.181Z,19.80
2018-04-22T07:24:47.636Z,20.10
2018-04-22T07:27:15.857Z,20.30
2018-04-22T07:29:45.248Z,21.00
2018-04-22T07:32:13.589Z,21.00
2018-04-22T07:34:41.930Z,21.10
2018-04-22T07:37:11.113Z,22.90
2018-04-22T07:39:39.392Z,22.80
2018-04-22T07:42:07.978Z,22.20
2018-04-22T07:44:36.961Z,22.50
2018-04-22T07:47:05.225Z,22.50
2018-04-22T07:49:33.297Z,23.40
2018-04-22T07:52:04.971Z,23.10
2018-04-22T07:54:33.985Z,22.90
2018-04-22T07:57:02.372Z,22.90
2018-04-22T07:59:31.213Z,22.90
2018-04-22T08:01:59.563Z,22.70
2018-04-22T08:04:27.981Z,23.70
2018-04-22T08:06:56.577Z,23.30
2018-04-22T08:09:25.969Z,22.80
2018-04-22T08:11:56.481Z,24.70
2018-04-22T08:14:26.166Z,24.70
2018-04-22T08:16:55.554Z,25.10
2018-04-22T08:19:23.883Z,25.00
2018-04-22T08:21:52.910Z,24.70
2018-04-22T08:24:21.417Z,24.60
2018-04-22T08:26:50.509Z,24.30
2018-04-22T08:29:19.233Z,24.30
2018-04-22T08:31:47.577Z,24.40
2018-04-22T08:34:17.055Z,24.80
2018-04-22T08:36:45.145Z,24.80
2018-04-22T08:39:14.098Z,25.40
2018-04-22T08:41:43.156Z,25.60
2018-04-22T08:44:11.310Z,25.50
2018-04-22T08:46:39.572Z,26.00
2018-04-22T08:49:07.869Z,26.30
2018-04-22T08:51:36.501Z,26.20
2018-04-22T08:54:05.533Z,25.50
2018-04-22T08:56:33.852Z,25.40
2018-04-22T08:59:03.585Z,25.70
2018-04-22T09:01:31.827Z,25.70
2018-04-22T09:04:02.658Z,26.10
2018-04-22T09:06:32.244Z,24.90
2018-04-22T09:09:01.075Z,24.80
2018-04-22T09:11:30.019Z,24.50
2018-04-22T09:13:58.796Z,25.90
2018-04-22T09:16:27.223Z,26.30
2018-04-22T09:18:55.592Z,25.50
2018-04-22T09:21:24.772Z,23.50
2018-04-22T09:23:54.875Z,24.30
2018-04-22T09:26:23.216Z,24.30
2018-04-22T09:28:51.354Z,25.90
2018-04-22T09:31:19.811Z,26.40
2018-04-22T09:33:48.223Z,26.20
2018-04-22T09:36:17.537Z,24.40
2018-04-22T09:38:46.546Z,23.70
2018-04-22T09:41:14.964Z,23.70
2018-04-22T09:43:43.511Z,23.50
2018-04-22T09:46:11.668Z,23.60
2018-04-22T09:48:41.980Z,24.20
2018-04-22T09:51:11.441Z,23.90
2018-04-22T09:53:39.723Z,23.90
2018-04-22T09:56:07.820Z,23.90
2018-04-22T09:58:36.603Z,24.10
2018-04-22T10:01:06.423Z,24.40
2018-04-22T10:03:35.673Z,24.30
2018-04-22T10:06:04.257Z,24.30
2018-04-22T10:08:32.400Z,24.50
2018-04-22T10:11:00.609Z,24.40
2018-04-22T10:13:29.804Z,24.60
2018-04-22T10:15:59.158Z,24.80
2018-04-22T10:18:28.202Z,24.70
2018-04-22T10:20:57.200Z,24.70
2018-04-22T10:23:25.605Z,24.70
2018-04-22T10:25:54.246Z,24.90
2018-04-22T10:28:22.316Z,24.90
2018-04-22T10:30:50.772Z,24.90
2018-04-22T10:33:19.197Z,24.90
2018-04-22T10:35:47.608Z,25.00
2018-04-22T10:38:16.569Z,24.90
2018-04-22T10:40:44.942Z,24.90
2018-04-22T10:43:13.373Z,25.10
2018-04-22T10:45:41.699Z,25.00
2018-04-22T10:48:10.078Z,25.40
2018-04-22T10:50:38.620Z,25.40
2018-04-22T10:53:07.787Z,25.70
2018-04-22T10:55:36.715Z,25.40
2018-04-22T10:58:05.127Z,25.40
2018-04-22T11:00:33.300Z,25.60
2018-04-22T11:03:01.686Z,25.80
2018-04-22T11:05:29.987Z,25.50
2018-04-22T11:07:59.085Z,25.20
2018-04-22T11:10:28.027Z,25.40
2018-04-22T11:12:56.313Z,25.40
2018-04-22T11:15:25.602Z,25.50
2018-04-22T11:17:54.851Z,25.70
2018-04-22T11:20:23.068Z,25.70
2018-04-22T11:22:51.651Z,25.80
2018-04-22T11:25:21.114Z,25.50
2018-04-22T11:27:49.358Z,25.50
2018-04-22T11:30:17.838Z,25.60
2018-04-22T11:32:47.862Z,25.60
2018-04-22T11:35:17.043Z,25.40
2018-04-22T11:37:45.241Z,25.40
2018-04-22T11:40:15.357Z,25.60
2018-04-22T11:42:43.714Z,25.60
2018-04-22T11:45:12.278Z,25.80
2018-04-22T11:47:40.825Z,26.00
2018-04-22T11:50:09.836Z,26.30
2018-04-22T11:52:38.105Z,26.30
2018-04-22T11:55:07.261Z,26.30
2018-04-22T11:57:35.721Z,26.30
2018-04-22T12:00:04.039Z,26.30
2018-04-22T12:02:33.351Z,26.10
2018-04-22T12:05:01.740Z,26.10
2018-04-22T12:07:29.932Z,26.00
2018-04-22T12:09:58.121Z,26.00
2018-04-22T12:12:26.452Z,26.00
2018-04-22T12:14:54.721Z,26.10
2018-04-22T12:17:24.204Z,26.20
2018-04-22T12:19:52.372Z,26.40
2018-04-22T12:22:20.585Z,26.70
2018-04-22T12:24:48.996Z,26.60
2018-04-22T12:27:17.386Z,26.80
2018-04-22T12:29:45.717Z,26.50
2018-04-22T12:32:15.021Z,26.40
2018-04-22T12:34:43.560Z,26.40
2018-04-22T12:37:11.739Z,26.50
2018-04-22T12:39:40.039Z,26.70
2018-04-22T12:42:09.454Z,26.60
2018-04-22T12:44:37.807Z,26.70
2018-04-22T12:47:06.927Z,26.60
2018-04-22T12:49:35.505Z,26.60
2018-04-22T12:52:03.884Z,26.80
2018-04-22T12:54:32.868Z,27.00
2018-04-22T12:57:01.483Z,27.10
2018-04-22T12:59:29.914Z,27.10
2018-04-22T13:01:58.226Z,27.30
2018-04-22T13:04:26.719Z,27.10
2018-04-22T13:06:55.157Z,26.90
2018-04-22T13:09:24.319Z,26.60
2018-04-22T13:11:53.322Z,26.70
2018-04-22T13:14:22.032Z,26.70
2018-04-22T13:16:50.979Z,26.80
2018-04-22T13:19:19.371Z,26.80
2018-04-22T13:21:47.809Z,26.80
2018-04-22T13:24:16.221Z,26.70
2018-04-22T13:26:44.934Z,26.70
2018-04-22T13:29:14.079Z,27.00
2018-04-22T13:31:42.819Z,27.00
2018-04-22T13:34:11.168Z,26.90
2018-04-22T13:36:39.602Z,26.90
2018-04-22T13:39:07.932Z,26.90
2018-04-22T13:41:36.226Z,27.00
2018-04-22T13:44:05.710Z,26.90
2018-04-22T13:46:35.157Z,26.70
2018-04-22T13:49:03.295Z,26.70
2018-04-22T13:51:31.683Z,26.70
2018-04-22T13:54:00.553Z,26.80
2018-04-22T13:56:29.238Z,26.80
2018-04-22T13:59:01.197Z,27.00
2018-04-22T14:01:30.426Z,27.10
2018-04-22T14:03:59.572Z,27.20
2018-04-22T14:06:28.249Z,27.20
2018-04-22T14:08:56.667Z,27.10
2018-04-22T14:11:25.066Z,27.00
2018-04-22T14:13:55.212Z,26.80
2018-04-22T14:16:24.526Z,26.80
2018-04-22T14:18:52.981Z,26.90
2018-04-22T14:21:21.471Z,26.80
2018-04-22T14:23:50.029Z,26.90
2018-04-22T14:26:19.062Z,27.20
2018-04-22T14:28:47.621Z,27.20
2018-04-22T14:31:16.731Z,26.90
2018-04-22T14:33:45.685Z,26.70
2018-04-22T14:36:15.623Z,26.50
2018-04-22T14:38:43.965Z,26.40
2018-04-22T14:41:12.342Z,26.60
2018-04-22T14:43:46.657Z,26.50
2018-04-22T14:46:15.933Z,26.50
2018-04-22T14:48:53.535Z,26.70
2018-04-22T14:51:21.894Z,26.90
2018-04-22T14:53:50.913Z,26.80
2018-04-22T14:56:19.277Z,26.60
2018-04-22T14:58:47.758Z,26.40
2018-04-22T15:01:17.259Z,26.60
2018-04-22T15:03:46.200Z,26.60
2018-04-22T15:06:16.295Z,26.30
2018-04-22T15:08:44.668Z,26.30
2018-04-22T15:11:13.223Z,26.40
2018-04-22T15:13:42.038Z,26.40
2018-04-22T15:16:10.870Z,26.30
2018-04-22T15:18:39.520Z,26.30
2018-04-22T15:21:08.709Z,26.20
2018-04-22T15:23:37.979Z,26.20
2018-04-22T15:26:06.577Z,26.10
2018-04-22T15:28:35.145Z,26.00
2018-04-22T15:31:03.640Z,26.00
2018-04-22T15:33:32.018Z,26.10
2018-04-22T15:36:00.379Z,25.90
2018-04-22T15:38:28.737Z,26.00
2018-04-22T15:40:57.128Z,25.90
2018-04-22T15:43:26.266Z,25.80
2018-04-22T15:45:54.986Z,25.80
2018-04-22T15:48:23.405Z,25.70
2018-04-22T15:50:52.932Z,25.80
2018-04-22T15:53:25.981Z,25.90
2018-04-22T15:55:54.621Z,25.80
2018-04-22T15:58:23.564Z,26.00
2018-04-22T16:00:54.129Z,26.10
2018-04-22T16:03:26.759Z,26.00
2018-04-22T16:05:59.592Z,26.00
2018-04-22T16:08:32.136Z,26.00
2018-04-22T16:11:01.673Z,25.90
2018-04-22T16:13:32.348Z,26.00
2018-04-22T16:16:00.548Z,25.90
2018-04-22T16:18:29.110Z,26.10
2018-04-22T16:20:57.749Z,26.20
2018-04-22T16:23:27.314Z,26.00
2018-04-22T16:25:57.047Z,26.00
2018-04-22T16:28:25.640Z,25.70
2018-04-22T16:30:54.401Z,25.70
2018-04-22T16:33:22.847Z,25.60
2018-04-22T16:35:51.349Z,25.50
2018-04-22T16:38:19.816Z,25.50
2018-04-22T16:40:48.426Z,25.50
2018-04-22T16:43:17.454Z,25.20
2018-04-22T16:45:46.750Z,25.10
2018-04-22T16:48:15.750Z,25.10
2018-04-22T16:50:44.035Z,25.20
2018-04-22T16:53:13.140Z,25.00
2018-04-22T16:55:41.596Z,25.00
2018-04-22T16:58:11.000Z,25.10
2018-04-22T17:00:39.711Z,25.00
2018-04-22T17:03:08.737Z,24.90
2018-04-22T17:05:37.189Z,24.80
2018-04-22T17:08:05.584Z,24.80
2018-04-22T17:10:34.115Z,24.80
2018-04-22T17:13:03.329Z,24.70
2018-04-22T17:15:31.590Z,24.70
2018-04-22T17:18:00.481Z,24.70
2018-04-22T17:20:29.932Z,24.70
2018-04-22T17:22:58.208Z,24.70
2018-04-22T17:25:26.565Z,24.80
2018-04-22T17:27:56.353Z,24.70
2018-04-22T17:30:24.549Z,24.70
2018-04-22T17:32:53.003Z,24.80
2018-04-22T17:35:22.058Z,24.70
2018-04-22T17:37:51.312Z,24.60
2018-04-22T17:40:19.727Z,24.50
2018-04-22T17:42:48.584Z,24.50
2018-04-22T17:45:17.864Z,24.50
2018-04-22T17:47:47.260Z,24.40
2018-04-22T17:50:16.254Z,24.40
2018-04-22T17:52:45.779Z,24.30
2018-04-22T17:55:15.136Z,24.20
2018-04-22T17:57:43.338Z,24.20
2018-04-22T18:00:12.709Z,24.10
2018-04-22T18:02:40.985Z,24.00
2018-04-22T18:05:09.335Z,24.00
2018-04-22T18:07:37.904Z,23.90
2018-04-22T18:10:07.489Z,23.80
2018-04-22T18:12:37.128Z,23.70
2018-04-22T18:15:05.623Z,23.70
2018-04-22T18:17:34.505Z,23.70
2018-04-22T18:20:03.262Z,23.70
2018-04-22T18:22:31.486Z,23.70
2018-04-22T18:25:00.045Z,23.60
2018-04-22T18:27:29.194Z,23.60
2018-04-22T18:29:58.241Z,23.40
2018-04-22T18:32:27.625Z,23.30
2018-04-22T18:34:56.014Z,23.20
2018-04-22T18:37:24.609Z,23.20
2018-04-22T18:39:52.795Z,23.20
2018-04-22T18:42:21.259Z,23.20
2018-04-22T18:44:49.810Z,23.00
2018-04-22T18:47:18.172Z,23.00
2018-04-22T18:49:47.546Z,22.70
2018-04-22T18:52:15.887Z,22.70
2018-04-22T18:54:44.241Z,22.60
2018-04-22T18:57:13.042Z,22.50
2018-04-22T18:59:42.401Z,22.40
2018-04-22T19:02:15.199Z,22.20
2018-04-22T19:04:44.886Z,22.10
2018-04-22T19:07:13.719Z,22.00
2018-04-22T19:09:45.697Z,21.90
2018-04-22T19:12:14.557Z,21.80
2018-04-22T19:14:43.904Z,21.60
2018-04-22T19:17:12.723Z,21.50
2018-04-22T19:19:42.053Z,21.40
2018-04-22T19:22:11.723Z,21.40
2018-04-22T19:24:40.659Z,21.20
2018-04-22T19:27:10.122Z,21.00
2018-04-22T19:29:38.560Z,21.00
2018-04-22T19:32:07.934Z,21.00
2018-04-22T19:34:36.387Z,20.90
2018-04-22T19:37:04.787Z,20.80
2018-04-22T19:39:32.947Z,20.70
2018-04-22T19:42:01.994Z,20.50
2018-04-22T19:44:30.792Z,20.50
2018-04-22T19:46:59.601Z,20.50
2018-04-22T19:49:28.118Z,20.50
2018-04-22T19:51:56.703Z,20.50
2018-04-22T19:54:25.576Z,20.50
2018-04-22T19:56:53.991Z,20.40
2018-04-22T19:59:22.863Z,20.30
2018-04-22T20:01:51.307Z,20.30
2018-04-22T20:04:19.722Z,20.30
2018-04-22T20:06:47.893Z,20.20
2018-04-22T20:09:16.167Z,20.10
2018-04-22T20:11:45.744Z,20.20
2018-04-22T20:14:14.925Z,20.20
2018-04-22T20:16:42.985Z,20.20
2018-04-22T20:19:11.219Z,20.20
2018-04-22T20:21:39.652Z,20.10
2018-04-22T20:24:08.850Z,20.00
2018-04-22T20:26:37.009Z,19.90
2018-04-22T20:29:05.323Z,20.00
2018-04-22T20:31:34.434Z,20.00
2018-04-22T20:34:05.165Z,20.00
2018-04-22T20:36:33.553Z,20.00
2018-04-22T20:39:02.276Z,20.00
2018-04-22T20:41:30.878Z,20.10
2018-04-22T20:43:59.711Z,20.10
2018-04-22T20:46:28.059Z,20.00
2018-04-22T20:48:56.467Z,20.00
2018-04-22T20:51:24.712Z,19.90
2018-04-22T20:53:53.893Z,19.80
2018-04-22T20:56:22.690Z,19.80
2018-04-22T20:58:52.817Z,19.80
2018-04-22T21:01:21.276Z,19.70
2018-04-22T21:03:50.079Z,19.80
2018-04-22T21:06:18.435Z,19.70
2018-04-22T21:08:46.891Z,19.70
2018-04-22T21:11:15.856Z,19.70
2018-04-22T21:13:44.202Z,19.70
2018-04-22T21:16:14.253Z,19.70
2018-04-22T21:18:42.601Z,19.70
2018-04-22T21:21:11.618Z,19.60
2018-04-22T21:23:39.940Z,19.60
2018-04-22T21:26:08.337Z,19.50
2018-04-22T21:28:36.628Z,19.50
2018-04-22T21:31:05.863Z,19.40
2018-04-22T21:33:34.125Z,19.30
2018-04-22T21:36:03.366Z,19.30
2018-04-22T21:38:32.394Z,19.30
2018-04-22T21:41:02.063Z,19.20
2018-04-22T21:43:31.355Z,19.20
2018-04-22T21:45:59.578Z,19.20
2018-04-22T21:48:27.865Z,19.20
2018-04-22T21:50:56.039Z,19.20
2018-04-22T21:53:25.428Z,19.20
2018-04-22T21:55:54.597Z,19.20
2018-04-22T21:58:23.665Z,19.10
2018-04-22T22:00:52.117Z,19.10
2018-04-22T22:03:20.664Z,19.10
2018-04-22T22:05:49.023Z,19.10
2018-04-22T22:08:17.222Z,19.10
2018-04-22T22:10:46.533Z,19.10
2018-04-22T22:13:15.651Z,19.20
2018-04-22T22:15:43.900Z,19.20
2018-04-22T22:18:12.943Z,19.20
2018-04-22T22:20:41.247Z,19.20
2018-04-22T22:23:09.571Z,19.30
2018-04-22T22:25:37.971Z,19.30
2018-04-22T22:28:06.366Z,19.30
2018-04-22T22:30:34.625Z,19.30
2018-04-22T22:33:03.038Z,19.30
2018-04-22T22:35:32.231Z,19.20
2018-04-22T22:38:02.497Z,19.20
2018-04-22T22:40:30.883Z,19.20
2018-04-22T22:42:59.257Z,19.20
2018-04-22T22:45:27.701Z,19.30
2018-04-22T22:47:55.873Z,19.30
2018-04-22T22:50:24.233Z,19.30
2018-04-22T22:52:52.626Z,19.30
2018-04-22T22:55:20.711Z,19.30
2018-04-22T22:57:50.011Z,19.30
2018-04-22T23:00:19.751Z,19.20
2018-04-22T23:02:48.523Z,19.20
2018-04-22T23:05:17.496Z,19.20
2018-04-22T23:07:47.426Z,19.20
2018-04-22T23:10:16.871Z,19.20
2018-04-22T23:12:45.186Z,19.20
2018-04-22T23:15:13.568Z,19.30
2018-04-22T23:17:41.953Z,19.30
2018-04-22T23:20:11.164Z,19.30
2018-04-22T23:22:39.660Z,19.30
2018-04-22T23:25:07.857Z,19.30
2018-04-22T23:27:36.605Z,19.30
2018-04-22T23:30:04.981Z,19.30
2018-04-22T23:32:34.377Z,19.20
2018-04-22T23:35:02.592Z,19.20
2018-04-22T23:37:31.483Z,19.10
2018-04-22T23:40:01.204Z,19.00
2018-04-22T23:42:29.593Z,19.00
2018-04-22T23:44:57.811Z,18.90
2018-04-22T23:47:25.884Z,18.90
2018-04-22T23:49:54.115Z,18.90
2018-04-22T23:52:22.347Z,18.90
2018-04-22T23:54:50.643Z,18.80
2018-04-22T23:57:20.081Z,18.70
2018-04-22T23:59:48.470Z,18.60
